Time;durP1;ratioP1;P1;durP2;ratioP2;P2;SDS_P1;SDS_P2;PMS_P1;PMS_P2;Temp;Humidity;BMP_temperature;BMP_pressure;BME280_temperature;BME280_humidity;BME280_pressure;Samples;Min_cycle;Max_cycle;Signal;HPM_P1;HPM_P2
2023/07/27 00:02:23;;;;;;;7.72;5.60;;;13.00;99.90;;;;;;5027538;28;20574;-52
2023/07/27 00:04:50;;;;;;;7.20;5.00;;;13.00;99.90;;;;;;5023565;28;20373;-53
2023/07/27 00:07:17;;;;;;;10.13;5.60;;;12.90;99.90;;;;;;5020362;28;20050;-52
2023/07/27 00:09:45;;;;;;;8.43;5.60;;;12.80;99.90;;;;;;5025408;28;20044;-53
2023/07/27 00:12:12;;;;;;;8.57;5.78;;;12.80;99.90;;;;;;5023050;28;20453;-51
2023/07/27 00:14:40;;;;;;;8.40;5.53;;;12.80;99.90;;;;;;5022382;28;20375;-49
2023/07/27 00:17:07;;;;;;;7.60;5.38;;;12.80;99.90;;;;;;5020234;28;20064;-49
2023/07/27 00:19:34;;;;;;;9.50;5.88;;;12.80;99.90;;;;;;5022771;28;20042;-50
2023/07/27 00:22:02;;;;;;;8.43;5.55;;;12.70;99.90;;;;;;5027957;28;20052;-53
2023/07/27 00:24:29;;;;;;;8.02;5.70;;;12.60;99.90;;;;;;5023323;28;20127;-55
2023/07/27 00:26:57;;;;;;;10.73;5.57;;;12.60;99.90;;;;;;5022156;28;20049;-51
2023/07/27 00:29:24;;;;;;;7.97;5.35;;;12.60;99.90;;;;;;5021846;28;20103;-48
2023/07/27 00:31:51;;;;;;;10.13;5.68;;;12.60;99.90;;;;;;5023315;28;20045;-49
2023/07/27 00:34:19;;;;;;;7.43;5.43;;;12.50;99.90;;;;;;5022875;28;20045;-52
2023/07/27 00:36:48;;;;;;;8.98;5.53;;;12.50;99.90;;;;;;5026449;28;20180;-51
2023/07/27 00:39:15;;;;;;;9.25;5.45;;;12.50;99.90;;;;;;5023230;28;20541;-53
2023/07/27 00:41:43;;;;;;;10.82;5.40;;;12.50;99.90;;;;;;5020682;28;20046;-54
2023/07/27 00:44:11;;;;;;;7.60;5.75;;;12.40;99.90;;;;;;5020054;28;20135;-50
2023/07/27 00:46:39;;;;;;;9.10;5.32;;;12.40;99.90;;;;;;5019845;28;20549;-51
2023/07/27 00:49:07;;;;;;;11.45;5.45;;;12.40;99.90;;;;;;5022307;28;20060;-50
2023/07/27 00:51:38;;;;;;;9.38;5.75;;;12.40;99.90;;;;;;5003980;28;20049;-50
2023/07/27 00:54:07;;;;;;;8.70;5.40;;;12.30;99.90;;;;;;5021549;28;20041;-53
2023/07/27 00:56:37;;;;;;;12.43;5.50;;;12.30;99.90;;;;;;5019291;28;20486;-51
2023/07/27 00:59:05;;;;;;;8.68;5.32;;;12.30;99.90;;;;;;5026356;28;20057;-50
2023/07/27 01:01:34;;;;;;;8.90;5.72;;;12.30;99.90;;;;;;5018644;28;20503;-50
2023/07/27 01:04:01;;;;;;;10.40;5.38;;;12.20;99.90;;;;;;5019736;28;20071;-48
2023/07/27 01:06:29;;;;;;;6.90;5.38;;;12.10;99.90;;;;;;5027386;28;20068;-49
2023/07/27 01:08:58;;;;;;;8.27;5.95;;;12.10;99.90;;;;;;5027513;28;20163;-50
2023/07/27 01:12:06;;;;;;;7.68;5.13;;;12.10;99.90;;;;;;5023229;28;20470;-54
2023/07/27 01:14:57;;;;;;;8.90;5.93;;;12.10;99.90;;;;;;5022977;28;20058;-52
2023/07/27 01:17:40;;;;;;;8.75;5.57;;;12.10;99.90;;;;;;5017326;28;20053;-49
2023/07/27 01:20:15;;;;;;;10.85;5.47;;;12.00;99.90;;;;;;5018242;28;20056;-48
2023/07/27 01:23:00;;;;;;;10.68;5.30;;;12.10;99.90;;;;;;5020441;28;20410;-51
2023/07/27 01:26:17;;;;;;;6.75;5.45;;;12.00;99.90;;;;;;5032613;28;20537;-54
2023/07/27 01:28:57;;;;;;;7.63;4.97;;;11.90;99.90;;;;;;5020291;28;20049;-50
2023/07/27 01:31:30;;;;;;;7.28;5.13;;;11.90;99.90;;;;;;5019666;28;20054;-54
2023/07/27 01:34:05;;;;;;;7.80;5.47;;;11.90;99.90;;;;;;5019893;28;20053;-54
2023/07/27 01:36:39;;;;;;;8.68;5.30;;;11.90;99.90;;;;;;5026022;28;20099;-52
2023/07/27 01:39:10;;;;;;;7.28;5.57;;;11.80;99.90;;;;;;5027068;28;20474;-51
2023/07/27 01:41:41;;;;;;;6.45;4.68;;;11.80;99.90;;;;;;5028053;28;20042;-50
2023/07/27 01:44:10;;;;;;;9.43;5.30;;;11.70;99.90;;;;;;5028652;28;20054;-51
2023/07/27 01:46:39;;;;;;;6.22;4.57;;;11.70;99.90;;;;;;5028440;28;20045;-54
2023/07/27 01:49:07;;;;;;;9.43;5.70;;;11.70;99.90;;;;;;5028208;28;20052;-48
2023/07/27 01:51:37;;;;;;;7.25;5.40;;;11.70;99.90;;;;;;5029600;28;20045;-55
2023/07/27 01:54:07;;;;;;;9.02;5.85;;;11.70;99.90;;;;;;5026853;28;20107;-52
2023/07/27 01:56:36;;;;;;;9.52;6.47;;;11.70;99.90;;;;;;5028085;28;20494;-50
2023/07/27 01:59:06;;;;;;;8.80;6.05;;;11.70;99.90;;;;;;5025400;28;20152;-52
2023/07/27 02:01:35;;;;;;;11.18;6.97;;;11.70;99.90;;;;;;5025967;28;20072;-48
2023/07/27 02:04:04;;;;;;;8.20;5.80;;;11.70;99.90;;;;;;5026964;28;20049;-50
2023/07/27 02:06:32;;;;;;;7.53;5.82;;;11.70;99.90;;;;;;5027146;28;20509;-54
2023/07/27 02:08:59;;;;;;;7.45;5.10;;;11.70;99.90;;;;;;5027703;28;20421;-50
2023/07/27 02:11:27;;;;;;;8.43;5.63;;;11.60;99.90;;;;;;5025730;28;20124;-52
2023/07/27 02:14:15;;;;;;;8.70;5.78;;;11.70;99.90;;;;;;5007566;28;20038;-54
2023/07/27 02:16:56;;;;;;;7.55;5.07;;;11.60;99.90;;;;;;5027912;28;20683;-54
2023/07/27 02:19:32;;;;;;;12.50;5.60;;;11.60;99.90;;;;;;5023298;28;20072;-50
2023/07/27 02:22:03;;;;;;;10.77;5.43;;;11.60;99.90;;;;;;5024598;28;20837;-53
2023/07/27 02:24:33;;;;;;;10.05;5.72;;;11.60;99.90;;;;;;5025648;28;20053;-51
2023/07/27 02:27:00;;;;;;;8.90;5.28;;;11.60;99.90;;;;;;5022298;28;20044;-56
2023/07/27 02:29:27;;;;;;;7.70;5.10;;;11.60;99.90;;;;;;5021301;28;20430;-49
2023/07/27 02:31:55;;;;;;;11.43;5.68;;;11.60;99.90;;;;;;5024406;28;20041;-51
2023/07/27 02:34:22;;;;;;;7.55;5.03;;;11.50;99.90;;;;;;5021659;28;20038;-51
2023/07/27 02:36:50;;;;;;;8.60;5.18;;;11.50;99.90;;;;;;5023869;28;20461;-56
2023/07/27 02:39:17;;;;;;;8.15;5.20;;;11.50;99.90;;;;;;5029652;28;20052;-53
2023/07/27 02:41:45;;;;;;;9.52;6.28;;;11.50;99.90;;;;;;5027273;28;20565;-53
2023/07/27 02:44:18;;;;;;;8.90;5.47;;;11.50;99.90;;;;;;5020029;28;20045;-49
2023/07/27 02:46:45;;;;;;;7.90;5.55;;;11.50;99.90;;;;;;5025842;28;20064;-52
2023/07/27 02:49:13;;;;;;;9.85;5.72;;;11.50;99.90;;;;;;5016514;28;20040;-54
2023/07/27 02:51:42;;;;;;;8.70;5.55;;;11.50;99.90;;;;;;5025574;28;20470;-50
2023/07/27 02:54:09;;;;;;;7.88;5.60;;;11.50;99.90;;;;;;5020802;28;20049;-50
2023/07/27 02:56:37;;;;;;;7.90;5.60;;;11.50;99.90;;;;;;5026486;28;20050;-53
2023/07/27 02:59:04;;;;;;;8.02;5.25;;;11.50;99.90;;;;;;5023720;28;20569;-51
2023/07/27 03:01:38;;;;;;;10.65;6.05;;;11.50;99.90;;;;;;5025221;28;20087;-51
2023/07/27 03:04:10;;;;;;;8.88;5.18;;;11.50;99.90;;;;;;5024460;28;20072;-50
2023/07/27 03:06:39;;;;;;;9.55;5.90;;;11.50;99.90;;;;;;5024274;28;20516;-55
2023/07/27 03:09:08;;;;;;;10.33;5.40;;;11.50;99.90;;;;;;5023906;28;20528;-50
2023/07/27 03:11:40;;;;;;;8.98;5.25;;;11.50;99.90;;;;;;5025083;28;20056;-50
2023/07/27 03:14:07;;;;;;;9.07;5.67;;;11.40;99.90;;;;;;5023654;28;20041;-51
2023/07/27 03:16:34;;;;;;;9.23;5.85;;;11.40;99.90;;;;;;5020580;28;20276;-53
2023/07/27 03:19:02;;;;;;;7.85;5.10;;;11.40;99.90;;;;;;5025656;28;20532;-48
2023/07/27 03:21:30;;;;;;;7.50;5.00;;;11.40;99.90;;;;;;5026463;28;20524;-57
2023/07/27 03:23:57;;;;;;;7.45;5.20;;;11.40;99.90;;;;;;5022762;28;20521;-51
2023/07/27 03:26:24;;;;;;;8.05;5.75;;;11.50;99.90;;;;;;5025041;28;20095;-51
2023/07/27 03:28:52;;;;;;;8.35;5.40;;;11.50;99.90;;;;;;5041006;28;20069;-52
2023/07/27 03:31:24;;;;;;;9.63;5.35;;;11.50;99.90;;;;;;5022100;28;20125;-46
2023/07/27 03:33:53;;;;;;;9.85;4.85;;;11.50;99.90;;;;;;5041384;28;20050;-51
2023/07/27 03:36:21;;;;;;;7.20;4.90;;;11.50;99.90;;;;;;5027620;28;20061;-54
2023/07/27 03:38:48;;;;;;;7.75;5.18;;;11.50;99.90;;;;;;5026469;28;20108;-54
2023/07/27 03:41:16;;;;;;;6.38;4.22;;;11.60;99.90;;;;;;5022032;28;20088;-52
2023/07/27 03:43:44;;;;;;;8.38;5.43;;;11.60;99.90;;;;;;5022960;28;20132;-50
2023/07/27 03:46:11;;;;;;;8.55;4.75;;;11.70;99.90;;;;;;5024743;28;20048;-50
2023/07/27 03:48:38;;;;;;;8.90;5.10;;;11.70;99.90;;;;;;5023794;28;20141;-51
2023/07/27 03:51:06;;;;;;;8.07;5.05;;;11.80;99.90;;;;;;5025598;28;20477;-52
2023/07/27 03:53:33;;;;;;;8.32;5.28;;;11.80;99.90;;;;;;5025049;28;20363;-52
2023/07/27 03:56:01;;;;;;;9.13;5.13;;;11.90;99.90;;;;;;5026760;28;20076;-54
2023/07/27 03:58:29;;;;;;;8.93;5.32;;;11.90;99.90;;;;;;5024595;28;20134;-54
2023/07/27 04:00:57;;;;;;;6.88;4.68;;;12.00;99.90;;;;;;5019989;28;20394;-54
2023/07/27 04:03:24;;;;;;;10.05;5.55;;;12.00;99.90;;;;;;5024458;28;20042;-47
2023/07/27 04:05:53;;;;;;;7.60;5.28;;;12.10;99.90;;;;;;5026108;28;20057;-53
2023/07/27 04:08:21;;;;;;;7.63;4.70;;;12.10;99.90;;;;;;5024481;28;20041;-50
2023/07/27 04:10:49;;;;;;;7.53;5.07;;;12.20;99.90;;;;;;5024128;28;20486;-53
2023/07/27 04:13:16;;;;;;;6.78;4.50;;;12.20;99.90;;;;;;5025632;28;20045;-52
2023/07/27 04:15:43;;;;;;;8.60;5.32;;;12.30;99.90;;;;;;5017660;28;20041;-53
2023/07/27 04:18:11;;;;;;;9.00;5.28;;;12.30;99.90;;;;;;5024302;28;20099;-52
2023/07/27 04:20:38;;;;;;;7.38;4.60;;;12.40;99.90;;;;;;5029628;28;20541;-51
2023/07/27 04:23:06;;;;;;;8.38;4.97;;;12.40;99.90;;;;;;5025302;28;20052;-57
2023/07/27 04:25:33;;;;;;;8.05;5.60;;;12.50;99.90;;;;;;5031207;28;20045;-50
2023/07/27 04:28:00;;;;;;;8.77;5.35;;;12.60;99.90;;;;;;5030049;28;20531;-51
2023/07/27 04:30:28;;;;;;;9.90;5.97;;;12.70;99.90;;;;;;5025353;28;20407;-53
2023/07/27 04:32:55;;;;;;;11.77;7.75;;;12.80;99.90;;;;;;5031721;28;20060;-58
2023/07/27 04:35:23;;;;;;;7.78;5.30;;;12.90;99.90;;;;;;5026972;28;20045;-54
2023/07/27 04:37:50;;;;;;;7.60;5.45;;;13.00;99.90;;;;;;5030312;28;20084;-49
2023/07/27 04:40:19;;;;;;;8.18;4.82;;;13.10;99.90;;;;;;5025666;28;20100;-57
2023/07/27 04:42:46;;;;;;;9.45;5.20;;;13.10;99.90;;;;;;5025841;28;20117;-49
2023/07/27 04:45:13;;;;;;;9.90;4.93;;;13.20;99.90;;;;;;5027622;28;20053;-47
2023/07/27 04:47:41;;;;;;;8.63;4.45;;;13.30;99.90;;;;;;5029527;28;20043;-52
2023/07/27 04:50:09;;;;;;;8.05;4.85;;;13.40;99.90;;;;;;5029350;28;20045;-48
2023/07/27 04:52:36;;;;;;;11.38;4.65;;;13.50;99.90;;;;;;5029785;28;20429;-55
2023/07/27 04:55:04;;;;;;;8.52;4.70;;;13.50;99.90;;;;;;5029904;28;20053;-56
2023/07/27 04:57:31;;;;;;;8.40;5.32;;;13.60;99.90;;;;;;5029210;28;20053;-50
2023/07/27 04:59:58;;;;;;;8.98;4.30;;;13.70;99.90;;;;;;5029632;28;20103;-45
2023/07/27 05:02:26;;;;;;;8.05;4.55;;;13.60;99.90;;;;;;5033725;28;20061;-47
2023/07/27 05:04:53;;;;;;;9.35;5.18;;;13.70;99.90;;;;;;5024530;28;20457;-52
2023/07/27 05:07:21;;;;;;;8.52;4.93;;;13.80;99.90;;;;;;5019988;28;20045;-51
2023/07/27 05:09:48;;;;;;;7.13;4.70;;;13.80;99.90;;;;;;5029963;28;20041;-52
2023/07/27 05:12:15;;;;;;;7.88;4.90;;;13.80;99.90;;;;;;5026247;28;20735;-54
2023/07/27 05:14:43;;;;;;;6.72;4.68;;;13.90;99.90;;;;;;5021348;28;20100;-47
2023/07/27 05:17:10;;;;;;;7.03;5.05;;;14.00;99.90;;;;;;5025732;28;20136;-49
2023/07/27 05:19:38;;;;;;;6.57;4.88;;;14.00;99.90;;;;;;5025429;28;20046;-56
2023/07/27 05:22:05;;;;;;;7.47;4.95;;;14.00;99.90;;;;;;5029841;28;20037;-50
2023/07/27 05:24:32;;;;;;;6.63;4.60;;;14.00;99.90;;;;;;5026089;28;20044;-49
2023/07/27 05:27:00;;;;;;;7.43;4.95;;;14.00;99.90;;;;;;5030099;28;20046;-53
2023/07/27 05:29:27;;;;;;;7.88;5.53;;;13.90;99.90;;;;;;5024757;28;20128;-51
2023/07/27 05:31:54;;;;;;;6.85;4.88;;;14.00;99.90;;;;;;5027453;28;20053;-55
2023/07/27 05:34:22;;;;;;;7.55;4.80;;;13.90;99.90;;;;;;5029243;28;20049;-49
2023/07/27 05:36:49;;;;;;;7.35;4.78;;;14.00;99.90;;;;;;5031671;28;20128;-52
2023/07/27 05:39:17;;;;;;;7.15;4.80;;;14.00;99.90;;;;;;5031211;28;20537;-49
2023/07/27 05:41:44;;;;;;;11.57;6.70;;;14.20;99.90;;;;;;5031415;28;20343;-53
2023/07/27 05:44:11;;;;;;;6.90;4.50;;;14.20;99.90;;;;;;5026708;28;20049;-51
2023/07/27 05:46:39;;;;;;;8.23;5.28;;;14.20;99.90;;;;;;5029112;28;20075;-49
2023/07/27 05:49:06;;;;;;;5.80;4.28;;;14.30;99.90;;;;;;5028861;28;20044;-50
2023/07/27 05:51:38;;;;;;;6.18;4.60;;;14.40;99.90;;;;;;5032358;28;20052;-58
2023/07/27 05:54:05;;;;;;;7.93;4.60;;;14.50;99.90;;;;;;5032469;28;20049;-52
2023/07/27 05:56:32;;;;;;;6.57;4.47;;;14.60;99.90;;;;;;5028745;28;20100;-49
2023/07/27 05:59:00;;;;;;;9.95;5.45;;;14.80;99.90;;;;;;5022739;28;20061;-51
2023/07/27 06:01:27;;;;;;;8.50;5.70;;;14.90;99.90;;;;;;5019547;28;20467;-51
2023/07/27 06:04:00;;;;;;;8.63;5.30;;;15.00;99.90;;;;;;5019387;28;20053;-54
2023/07/27 06:06:35;;;;;;;9.38;5.50;;;15.10;99.90;;;;;;5025967;28;20115;-52
2023/07/27 06:09:03;;;;;;;6.70;4.60;;;15.10;99.90;;;;;;5025456;28;20033;-53
2023/07/27 06:11:31;;;;;;;9.73;5.07;;;15.10;99.90;;;;;;5022911;28;20402;-55
2023/07/27 06:13:58;;;;;;;7.78;4.47;;;15.10;99.90;;;;;;5019772;28;20061;-47
2023/07/27 06:16:26;;;;;;;4.78;3.92;;;15.10;99.90;;;;;;5019481;28;20037;-53
2023/07/27 06:18:54;;;;;;;9.48;4.30;;;15.30;99.90;;;;;;5018514;28;20404;-48
2023/07/27 06:21:21;;;;;;;11.32;4.22;;;15.40;99.90;;;;;;5027135;28;20050;-46
2023/07/27 06:23:48;;;;;;;10.10;4.82;;;15.50;99.90;;;;;;5021660;28;20048;-48
2023/07/27 06:26:16;;;;;;;12.32;8.02;;;15.50;99.90;;;;;;5019127;28;20124;-49
2023/07/27 06:28:43;;;;;;;8.07;4.82;;;15.70;99.90;;;;;;5026157;28;20065;-47
2023/07/27 06:31:10;;;;;;;9.85;4.20;;;15.90;99.90;;;;;;5021625;28;20490;-49
2023/07/27 06:33:38;;;;;;;8.13;4.90;;;16.00;99.90;;;;;;5019702;28;20578;-52
2023/07/27 06:36:11;;;;;;;6.85;4.55;;;16.20;99.90;;;;;;5018146;28;20041;-51
2023/07/27 06:38:39;;;;;;;7.03;4.40;;;16.20;99.90;;;;;;5021594;28;20080;-46
2023/07/27 06:41:06;;;;;;;7.38;4.40;;;16.30;99.90;;;;;;5019232;28;20052;-49
2023/07/27 06:43:34;;;;;;;7.38;3.88;;;16.20;99.90;;;;;;5022009;28;20186;-50
2023/07/27 06:46:01;;;;;;;6.82;4.20;;;16.20;99.90;;;;;;5019070;28;20057;-50
2023/07/27 06:48:28;;;;;;;6.55;3.95;;;16.30;99.90;;;;;;5015380;28;20107;-57
2023/07/27 06:50:57;;;;;;;5.53;4.20;;;16.40;99.90;;;;;;5023503;28;20056;-48
2023/07/27 06:53:24;;;;;;;7.75;5.10;;;16.40;99.90;;;;;;5016381;28;20414;-54
2023/07/27 06:55:51;;;;;;;8.10;5.45;;;16.50;99.90;;;;;;5018308;28;20065;-50
2023/07/27 06:58:20;;;;;;;9.45;6.60;;;16.60;99.90;;;;;;5017148;28;20052;-51
2023/07/27 07:00:48;;;;;;;7.22;5.10;;;16.60;99.90;;;;;;5018000;28;20126;-50
2023/07/27 07:03:15;;;;;;;10.35;5.75;;;16.80;99.90;;;;;;5019179;28;20057;-51
2023/07/27 07:05:43;;;;;;;7.90;4.78;;;17.00;99.90;;;;;;5019239;28;20045;-48
2023/07/27 07:08:10;;;;;;;6.80;4.43;;;17.10;99.90;;;;;;5020218;28;20069;-51
2023/07/27 07:10:38;;;;;;;7.03;4.05;;;17.30;99.90;;;;;;5023187;28;20375;-52
2023/07/27 07:13:05;;;;;;;7.20;4.35;;;17.30;99.90;;;;;;5018523;28;20046;-53
2023/07/27 07:15:32;;;;;;;8.73;4.70;;;17.60;99.90;;;;;;5019921;28;20049;-52
2023/07/27 07:18:00;;;;;;;6.82;4.70;;;17.80;99.90;;;;;;5019513;28;20045;-48
2023/07/27 07:20:27;;;;;;;6.82;4.80;;;17.70;99.90;;;;;;5021143;28;20332;-50
2023/07/27 07:22:54;;;;;;;8.18;5.68;;;17.80;99.90;;;;;;5020489;28;20060;-48
2023/07/27 07:25:22;;;;;;;7.57;5.03;;;17.60;99.90;;;;;;5023828;28;20049;-54
2023/07/27 07:27:49;;;;;;;5.72;4.07;;;17.70;99.90;;;;;;5023429;28;20075;-52
2023/07/27 07:30:16;;;;;;;5.68;4.45;;;17.80;99.90;;;;;;5027056;28;20414;-50
2023/07/27 07:32:44;;;;;;;7.82;4.25;;;17.90;99.90;;;;;;5026727;28;20045;-55
2023/07/27 07:35:11;;;;;;;5.85;4.50;;;18.00;99.90;;;;;;5026232;28;20029;-51
2023/07/27 07:37:39;;;;;;;7.93;4.80;;;18.10;99.90;;;;;;5027402;28;20079;-51
2023/07/27 07:40:07;;;;;;;6.35;4.45;;;18.20;99.90;;;;;;5023012;28;20061;-54
2023/07/27 07:42:34;;;;;;;7.43;5.20;;;18.20;99.90;;;;;;5023520;28;20120;-55
2023/07/27 07:45:02;;;;;;;8.15;4.75;;;18.00;99.90;;;;;;5025774;28;20135;-48
2023/07/27 07:47:29;;;;;;;6.95;5.18;;;17.80;99.90;;;;;;5026289;28;20034;-52
2023/07/27 07:49:59;;;;;;;9.32;5.10;;;17.80;99.90;;;;;;5026422;28;20043;-58
2023/07/27 07:52:26;;;;;;;7.40;5.43;;;17.80;99.90;;;;;;5030716;28;20069;-49
2023/07/27 07:54:53;;;;;;;8.23;4.65;;;17.90;99.90;;;;;;5030842;28;20473;-48
2023/07/27 07:57:21;;;;;;;8.38;5.15;;;18.00;99.90;;;;;;5030792;28;20129;-50
2023/07/27 07:59:48;;;;;;;7.57;4.90;;;18.10;99.90;;;;;;5030999;28;20053;-51
2023/07/27 08:02:15;;;;;;;5.05;3.75;;;18.10;99.90;;;;;;5030897;28;20056;-51
2023/07/27 08:04:43;;;;;;;7.05;4.40;;;17.90;99.90;;;;;;5030733;28;20367;-53
2023/07/27 08:07:10;;;;;;;6.57;4.95;;;17.90;99.90;;;;;;5029102;28;20060;-46
2023/07/27 08:09:37;;;;;;;6.03;4.10;;;18.00;99.90;;;;;;5030750;28;20041;-51
2023/07/27 08:12:05;;;;;;;8.52;4.65;;;18.10;99.90;;;;;;5028787;28;20080;-54
2023/07/27 08:14:32;;;;;;;8.38;4.00;;;18.20;99.90;;;;;;5031172;28;20052;-46
2023/07/27 08:17:00;;;;;;;5.68;4.05;;;18.10;99.90;;;;;;5029046;28;20073;-47
2023/07/27 08:19:27;;;;;;;8.00;4.40;;;18.10;99.90;;;;;;5031137;28;20467;-55
2023/07/27 08:21:54;;;;;;;7.15;4.22;;;18.10;99.90;;;;;;5030272;28;20057;-48
2023/07/27 08:24:24;;;;;;;6.85;3.90;;;17.90;99.90;;;;;;5025775;28;20053;-44
2023/07/27 08:26:52;;;;;;;7.13;4.30;;;17.80;99.90;;;;;;5030765;28;20144;-48
2023/07/27 08:29:19;;;;;;;5.47;3.92;;;17.80;99.90;;;;;;5030638;28;20038;-51
2023/07/27 08:31:46;;;;;;;8.60;4.35;;;17.70;99.90;;;;;;5029059;28;20037;-48
2023/07/27 08:34:14;;;;;;;7.00;4.38;;;17.70;99.90;;;;;;5026887;28;20049;-51
2023/07/27 08:36:41;;;;;;;7.10;3.83;;;17.60;99.90;;;;;;5029972;28;20128;-51
2023/07/27 08:39:08;;;;;;;6.43;4.35;;;17.60;99.90;;;;;;5031122;28;20140;-47
2023/07/27 08:41:36;;;;;;;6.85;4.13;;;17.80;99.90;;;;;;5030939;28;20045;-50
2023/07/27 08:44:04;;;;;;;7.72;4.00;;;17.80;99.90;;;;;;5029281;28;20599;-47
2023/07/27 08:46:33;;;;;;;8.75;3.90;;;17.90;99.90;;;;;;5029766;28;20053;-48
2023/07/27 08:49:03;;;;;;;7.20;3.95;;;17.90;99.90;;;;;;5028873;28;20046;-50
2023/07/27 08:51:34;;;;;;;7.55;3.95;;;17.90;99.90;;;;;;5026201;28;20436;-56
2023/07/27 08:54:01;;;;;;;6.70;4.80;;;18.00;99.90;;;;;;5030230;28;20633;-46
2023/07/27 08:56:29;;;;;;;6.70;4.68;;;18.10;99.90;;;;;;5023351;28;20072;-47
2023/07/27 08:58:57;;;;;;;6.38;4.10;;;18.30;99.90;;;;;;5029380;28;20151;-51
2023/07/27 09:01:26;;;;;;;7.30;5.20;;;18.40;99.90;;;;;;5025010;28;20156;-57
2023/07/27 09:03:54;;;;;;;6.35;4.18;;;18.40;99.90;;;;;;5028889;28;20442;-49
2023/07/27 09:06:43;;;;;;;6.28;4.00;;;18.50;99.90;;;;;;5025556;28;20053;-51
2023/07/27 09:09:23;;;;;;;9.18;4.93;;;18.60;99.90;;;;;;5027741;28;20175;-53
2023/07/27 09:11:51;;;;;;;6.82;4.60;;;18.60;99.90;;;;;;5029722;28;20049;-50
2023/07/27 09:14:19;;;;;;;7.15;4.25;;;18.60;99.90;;;;;;5024717;28;20050;-47
2023/07/27 09:16:50;;;;;;;5.95;4.53;;;18.70;99.90;;;;;;5029897;28;20056;-46
2023/07/27 09:19:24;;;;;;;6.38;4.57;;;18.70;99.90;;;;;;5027903;28;20127;-49
2023/07/27 09:21:52;;;;;;;7.43;4.32;;;18.80;99.90;;;;;;5027298;28;20077;-54
2023/07/27 09:24:23;;;;;;;6.88;4.57;;;18.80;99.90;;;;;;5028037;28;20144;-50
2023/07/27 09:26:52;;;;;;;7.50;4.65;;;18.90;99.90;;;;;;5025431;28;20056;-49
2023/07/27 09:29:21;;;;;;;6.85;4.40;;;19.00;99.90;;;;;;5028278;28;20041;-49
2023/07/27 09:31:54;;;;;;;7.55;4.78;;;19.00;99.90;;;;;;5027810;28;20178;-50
2023/07/27 09:34:21;;;;;;;7.60;5.10;;;19.10;99.90;;;;;;5032017;28;20095;-56
2023/07/27 09:36:49;;;;;;;6.50;4.88;;;19.10;99.90;;;;;;5028080;28;20047;-49
2023/07/27 09:39:17;;;;;;;7.35;5.10;;;19.20;99.90;;;;;;5029664;28;20049;-46
2023/07/27 09:41:46;;;;;;;9.27;4.68;;;19.30;99.90;;;;;;5028424;28;20053;-50
2023/07/27 09:44:15;;;;;;;5.28;4.18;;;19.30;99.90;;;;;;5029298;28;20122;-52
2023/07/27 09:46:46;;;;;;;8.13;4.70;;;19.30;99.90;;;;;;5028338;28;20057;-54
2023/07/27 09:49:15;;;;;;;7.00;4.85;;;19.40;99.90;;;;;;5027228;28;20050;-51
2023/07/27 09:51:44;;;;;;;7.25;5.05;;;19.40;99.90;;;;;;5028182;28;20545;-49
2023/07/27 09:54:12;;;;;;;7.05;4.00;;;19.40;99.90;;;;;;5024853;28;20520;-45
2023/07/27 09:56:40;;;;;;;5.50;4.30;;;19.20;99.90;;;;;;5029792;28;20580;-51
2023/07/27 09:59:08;;;;;;;5.88;4.47;;;19.20;99.90;;;;;;5028254;28;20045;-51
2023/07/27 10:01:35;;;;;;;8.07;4.65;;;19.20;99.90;;;;;;5029040;28;20053;-50
2023/07/27 10:04:03;;;;;;;6.15;4.30;;;19.20;99.90;;;;;;5028268;28;20488;-54
2023/07/27 10:06:32;;;;;;;7.72;4.82;;;19.30;99.90;;;;;;5027630;28;20357;-59
2023/07/27 10:09:00;;;;;;;7.25;5.10;;;19.60;99.90;;;;;;5027449;28;20104;-49
2023/07/27 10:11:47;;;;;;;10.07;5.50;;;19.60;99.90;;;;;;5021839;28;20056;-52
2023/07/27 10:14:19;;;;;;;6.45;4.47;;;19.60;99.90;;;;;;5027671;28;20133;-50
2023/07/27 10:17:00;;;;;;;6.40;4.10;;;19.80;99.90;;;;;;5028069;28;20136;-51
2023/07/27 10:19:43;;;;;;;6.70;5.32;;;19.60;99.90;;;;;;5024658;28;20045;-52
2023/07/27 10:22:13;;;;;;;7.47;5.13;;;19.70;99.90;;;;;;5028519;28;20518;-52
2023/07/27 10:24:49;;;;;;;8.48;5.50;;;19.70;99.90;;;;;;5023877;28;20046;-49
2023/07/27 10:27:18;;;;;;;6.28;4.55;;;19.80;99.90;;;;;;5027928;28;20059;-49
2023/07/27 10:30:06;;;;;;;10.10;5.13;;;19.90;99.90;;;;;;5029388;28;20044;-51
2023/07/27 10:32:35;;;;;;;6.55;4.43;;;19.90;99.90;;;;;;5022580;28;20053;-51
2023/07/27 10:35:10;;;;;;;6.30;4.57;;;19.80;99.90;;;;;;5024300;28;20058;-51
2023/07/27 10:37:52;;;;;;;7.30;4.70;;;19.70;99.90;;;;;;5026957;28;20048;-49
2023/07/27 10:40:26;;;;;;;;;;;19.70;99.90;;;;;;5027089;28;20057;-53
2023/07/27 10:42:57;;;;;;;13.35;6.05;;;19.80;99.90;;;;;;5027839;28;19960;-49
2023/07/27 10:45:26;;;;;;;7.63;4.60;;;20.00;99.90;;;;;;5024726;28;20049;-55
2023/07/27 10:47:57;;;;;;;8.85;4.78;;;20.00;99.90;;;;;;5028796;28;20057;-51
2023/07/27 10:50:25;;;;;;;8.63;4.53;;;20.10;99.90;;;;;;5024475;28;20057;-52
2023/07/27 10:52:53;;;;;;;8.00;5.00;;;19.80;99.90;;;;;;5026989;28;20046;-54
2023/07/27 10:55:21;;;;;;;8.88;4.95;;;20.00;99.90;;;;;;5020370;28;20073;-51
2023/07/27 10:57:53;;;;;;;6.90;4.88;;;20.00;99.90;;;;;;5024555;28;20041;-47
2023/07/27 11:00:34;;;;;;;8.43;5.13;;;20.10;99.90;;;;;;5023445;28;20056;-53
2023/07/27 11:03:03;;;;;;;8.27;5.75;;;20.30;99.90;;;;;;5023684;28;20426;-53
2023/07/27 11:05:31;;;;;;;8.55;5.47;;;20.50;99.90;;;;;;5028730;28;20152;-57
2023/07/27 11:08:02;;;;;;;7.57;5.07;;;20.40;99.90;;;;;;5024172;28;20668;-48
2023/07/27 11:10:30;;;;;;;6.67;5.27;;;20.50;99.90;;;;;;5026158;28;20045;-49
2023/07/27 11:12:58;;;;;;;6.63;4.75;;;20.50;99.90;;;;;;5023019;28;20306;-49
2023/07/27 11:15:29;;;;;;;7.50;4.88;;;20.70;99.90;;;;;;5024615;28;20124;-47
2023/07/27 11:17:59;;;;;;;9.75;5.13;;;20.90;99.90;;;;;;5022854;28;20488;-46
2023/07/27 11:20:28;;;;;;;7.78;5.18;;;21.00;99.90;;;;;;5028233;28;20556;-52
2023/07/27 11:22:58;;;;;;;7.63;5.07;;;21.20;99.90;;;;;;5026860;28;20136;-47
2023/07/27 11:25:32;;;;;;;10.10;4.72;;;21.20;99.90;;;;;;5030119;28;20056;-50
2023/07/27 11:28:00;;;;;;;7.07;4.57;;;21.30;99.90;;;;;;5028266;28;20398;-58
2023/07/27 11:30:35;;;;;;;6.47;4.70;;;21.20;99.90;;;;;;5032162;28;20546;-48
2023/07/27 11:33:04;;;;;;;5.70;4.35;;;21.00;99.90;;;;;;5030957;28;20057;-51
2023/07/27 11:35:32;;;;;;;6.57;4.65;;;20.90;99.90;;;;;;5029927;28;20116;-53
2023/07/27 11:38:00;;;;;;;7.25;5.00;;;20.70;99.90;;;;;;5030148;28;20121;-53
2023/07/27 11:40:28;;;;;;;6.75;4.60;;;20.50;99.90;;;;;;5031319;28;20455;-48
2023/07/27 11:43:00;;;;;;;9.35;4.40;;;20.50;99.90;;;;;;5030060;28;20132;-47
2023/07/27 11:45:27;;;;;;;8.68;4.63;;;20.30;99.90;;;;;;5031186;28;20049;-55
2023/07/27 11:47:55;;;;;;;5.75;4.20;;;19.80;99.90;;;;;;5031356;28;20057;-48
2023/07/27 11:50:23;;;;;;;5.45;3.90;;;19.30;99.90;;;;;;5030483;28;20413;-49
2023/07/27 11:52:57;;;;;;;6.07;4.47;;;18.70;99.90;;;;;;5030675;28;20107;-48
2023/07/27 11:55:25;;;;;;;6.68;4.80;;;18.30;99.90;;;;;;5032321;28;20033;-49
2023/07/27 11:57:53;;;;;;;8.05;5.03;;;17.80;99.90;;;;;;5030045;28;20045;-52
2023/07/27 12:00:21;;;;;;;8.32;4.95;;;17.20;99.90;;;;;;5030307;28;20063;-55
2023/07/27 12:02:50;;;;;;;9.73;5.45;;;17.10;99.90;;;;;;5028790;28;20050;-49
2023/07/27 12:05:22;;;;;;;9.32;5.82;;;17.10;99.90;;;;;;5030999;28;20061;-49
2023/07/27 12:07:50;;;;;;;8.57;5.18;;;17.00;99.90;;;;;;5023329;28;20401;-50
2023/07/27 12:10:22;;;;;;;10.80;5.63;;;17.00;99.90;;;;;;5027334;28;20583;-49
2023/07/27 12:12:59;;;;;;;;;;;16.90;99.90;;;;;;5029840;28;20041;-50
2023/07/27 12:15:37;;;;;;;8.82;5.53;;;16.90;99.90;;;;;;5026835;28;20023;-49
2023/07/27 12:18:06;;;;;;;8.18;5.90;;;16.70;99.90;;;;;;5026768;28;20073;-50
2023/07/27 12:20:35;;;;;;;8.30;6.40;;;16.70;99.90;;;;;;5031434;28;20041;-49
2023/07/27 12:23:06;;;;;;;10.45;6.65;;;16.50;99.90;;;;;;5026459;28;20533;-48
2023/07/27 12:25:36;;;;;;;9.73;6.40;;;16.60;99.90;;;;;;5028220;28;20116;-48
2023/07/27 12:28:05;;;;;;;8.00;6.05;;;16.70;99.90;;;;;;5031043;28;20132;-52
2023/07/27 12:30:36;;;;;;;7.53;5.90;;;16.90;99.90;;;;;;5028258;28;20391;-52
2023/07/27 12:33:04;;;;;;;10.13;5.50;;;17.20;99.90;;;;;;5029516;28;20038;-53
2023/07/27 12:35:31;;;;;;;10.20;6.43;;;17.30;99.90;;;;;;5030311;28;20418;-54
2023/07/27 12:37:59;;;;;;;9.60;5.80;;;17.40;99.90;;;;;;5025629;28;20373;-52
2023/07/27 12:40:29;;;;;;;10.70;5.72;;;17.30;99.90;;;;;;5022646;28;20889;-47
2023/07/27 12:43:00;;;;;;;9.10;6.05;;;17.30;99.90;;;;;;5030292;28;20478;-52
2023/07/27 12:45:27;;;;;;;12.55;7.03;;;17.00;99.90;;;;;;5027127;28;20398;-52
2023/07/27 12:47:55;;;;;;;8.60;5.70;;;17.10;99.90;;;;;;5031570;28;20434;-47
2023/07/27 12:50:22;;;;;;;8.90;5.53;;;17.20;99.90;;;;;;5029153;28;20136;-47
2023/07/27 12:52:50;;;;;;;8.68;5.68;;;17.20;99.90;;;;;;5029210;28;20038;-53
2023/07/27 12:55:17;;;;;;;11.50;5.88;;;17.20;99.90;;;;;;5027596;28;20132;-50
2023/07/27 12:57:45;;;;;;;12.07;6.82;;;17.20;99.90;;;;;;5028163;28;20115;-43